createdAt,value
2023-08-30T00:01:12.627Z,1.80
2023-08-30T00:03:41.139Z,1.73
2023-08-30T00:06:12.924Z,1.60
2023-08-30T00:08:41.142Z,1.77
2023-08-30T00:11:09.404Z,1.70
2023-08-30T00:13:39.052Z,1.77
2023-08-30T00:16:07.923Z,1.98
2023-08-30T00:18:36.276Z,1.92
2023-08-30T00:21:04.561Z,1.50
2023-08-30T00:23:32.845Z,1.70
2023-08-30T00:26:01.104Z,1.90
2023-08-30T00:28:29.370Z,1.75
2023-08-30T00:30:59.062Z,1.75
2023-08-30T00:33:27.360Z,1.90
2023-08-30T00:35:59.793Z,1.60
2023-08-30T00:38:30.318Z,1.50
2023-08-30T00:40:58.647Z,1.58
2023-08-30T00:43:26.916Z,1.33
2023-08-30T00:45:55.486Z,1.48
2023-08-30T00:48:25.231Z,1.88
2023-08-30T00:50:53.819Z,1.50
2023-08-30T00:53:22.122Z,1.70
2023-08-30T00:55:50.479Z,1.63
2023-08-30T00:58:19.025Z,1.80
2023-08-30T01:00:48.312Z,1.52
2023-08-30T01:03:18.234Z,1.35
2023-08-30T01:05:48.006Z,1.77
2023-08-30T01:08:16.774Z,1.40
2023-08-30T01:10:55.510Z,1.42
2023-08-30T01:13:24.024Z,1.40
2023-08-30T01:15:56.247Z,1.85
2023-08-30T01:18:28.724Z,1.70
2023-08-30T01:20:59.604Z,1.67
2023-08-30T01:23:42.612Z,1.58
2023-08-30T01:26:16.015Z,1.83
2023-08-30T01:28:46.336Z,1.92
2023-08-30T01:31:15.401Z,1.75
2023-08-30T01:33:44.798Z,2.42
2023-08-30T01:36:13.617Z,2.60
2023-08-30T01:38:42.321Z,2.70
2023-08-30T01:41:10.712Z,2.83
2023-08-30T01:43:39.394Z,3.00
2023-08-30T01:46:09.627Z,3.30
2023-08-30T01:48:38.482Z,2.92
2023-08-30T01:51:07.401Z,3.78
2023-08-30T01:53:36.464Z,3.42
2023-08-30T01:56:04.962Z,3.22
2023-08-30T01:58:33.227Z,3.20
2023-08-30T02:01:02.981Z,3.22
2023-08-30T02:03:32.748Z,3.60
2023-08-30T02:06:10.040Z,3.30
2023-08-30T02:08:42.929Z,3.40
2023-08-30T02:11:19.309Z,3.70
2023-08-30T02:13:48.964Z,3.25
2023-08-30T02:16:19.845Z,3.10
2023-08-30T02:18:51.051Z,3.00
2023-08-30T02:21:19.682Z,2.75
2023-08-30T02:23:52.264Z,2.83
2023-08-30T02:26:21.679Z,2.53
2023-08-30T02:28:50.216Z,2.13
2023-08-30T02:31:18.570Z,2.60
2023-08-30T02:33:46.860Z,2.20
2023-08-30T02:36:16.490Z,2.30
2023-08-30T02:38:44.671Z,2.00
2023-08-30T02:41:13.586Z,2.17
2023-08-30T02:43:41.803Z,2.35
2023-08-30T02:46:10.146Z,2.50
2023-08-30T02:48:38.406Z,2.38
2023-08-30T02:51:06.607Z,2.25
2023-08-30T02:53:36.237Z,2.53
2023-08-30T02:56:04.704Z,2.42
2023-08-30T02:58:34.442Z,2.58
2023-08-30T03:01:03.982Z,2.55
2023-08-30T03:03:32.389Z,2.47
2023-08-30T03:06:00.657Z,2.42
2023-08-30T03:08:28.904Z,2.30
2023-08-30T03:10:58.533Z,2.20
2023-08-30T03:13:26.816Z,1.80
2023-08-30T03:15:55.085Z,1.90
2023-08-30T03:18:23.331Z,1.70
2023-08-30T03:21:01.457Z,1.85
2023-08-30T03:23:29.722Z,1.80
2023-08-30T03:25:59.376Z,1.90
2023-08-30T03:28:28.576Z,1.77
2023-08-30T03:30:56.875Z,2.10
2023-08-30T03:33:25.121Z,1.40
2023-08-30T03:35:53.413Z,1.40
2023-08-30T03:38:21.649Z,1.30
2023-08-30T03:40:54.844Z,0.90
2023-08-30T03:43:24.471Z,1.42
2023-08-30T03:45:53.551Z,1.10
2023-08-30T03:48:21.826Z,1.08
2023-08-30T03:50:50.096Z,1.40
2023-08-30T03:53:18.352Z,1.20
2023-08-30T03:55:46.601Z,1.33
2023-08-30T03:58:14.854Z,1.00
2023-08-30T04:00:44.588Z,1.13
2023-08-30T04:03:13.122Z,1.10
2023-08-30T04:05:41.453Z,1.17
2023-08-30T04:08:10.212Z,1.27
2023-08-30T04:10:39.365Z,1.50
2023-08-30T04:13:08.790Z,1.55
2023-08-30T04:15:37.458Z,1.58
2023-08-30T04:18:08.854Z,1.70
2023-08-30T04:20:37.388Z,1.80
2023-08-30T04:23:05.871Z,1.80
2023-08-30T04:25:36.815Z,1.70
2023-08-30T04:28:05.719Z,1.40
2023-08-30T04:30:34.434Z,2.03
2023-08-30T04:33:04.419Z,1.45
2023-08-30T04:35:34.597Z,1.40
2023-08-30T04:38:04.276Z,1.48
2023-08-30T04:40:33.290Z,1.40
2023-08-30T04:43:01.803Z,1.50
2023-08-30T04:45:30.889Z,1.42
2023-08-30T04:47:59.301Z,1.55
2023-08-30T04:50:27.622Z,1.40
2023-08-30T04:52:57.232Z,1.30
2023-08-30T04:55:26.835Z,1.02
2023-08-30T04:57:55.098Z,0.88
2023-08-30T05:00:23.598Z,0.95
2023-08-30T05:02:51.873Z,1.00
2023-08-30T05:05:20.268Z,1.00
2023-08-30T05:07:48.535Z,1.10
2023-08-30T05:10:18.279Z,0.85
2023-08-30T05:12:50.869Z,1.00
2023-08-30T05:15:19.168Z,1.00
2023-08-30T05:17:47.418Z,1.10
2023-08-30T05:20:15.811Z,1.10
2023-08-30T05:22:44.042Z,1.25
2023-08-30T05:25:12.340Z,1.42
2023-08-30T05:27:41.956Z,1.50
2023-08-30T05:30:10.979Z,1.67
2023-08-30T05:32:39.269Z,1.63
2023-08-30T05:35:08.099Z,1.83
2023-08-30T05:37:36.367Z,2.25
2023-08-30T05:40:05.152Z,1.60
2023-08-30T05:42:33.519Z,1.60
2023-08-30T05:45:04.431Z,1.63
2023-08-30T05:47:33.267Z,1.30
2023-08-30T05:50:01.500Z,1.30
2023-08-30T05:52:29.779Z,1.25
2023-08-30T05:54:58.025Z,1.35
2023-08-30T05:57:26.773Z,1.20
2023-08-30T05:59:55.047Z,1.25
2023-08-30T06:02:24.772Z,1.25
2023-08-30T06:04:53.068Z,1.20
2023-08-30T06:07:21.290Z,1.20
2023-08-30T06:09:50.511Z,1.05
2023-08-30T06:12:19.072Z,0.98
2023-08-30T06:14:53.038Z,1.10
2023-08-30T06:17:22.032Z,1.35
2023-08-30T06:19:51.836Z,1.60
2023-08-30T06:22:20.134Z,1.70
2023-08-30T06:24:48.407Z,3.85
2023-08-30T06:27:16.732Z,5.30
2023-08-30T06:29:44.963Z,3.17
2023-08-30T06:32:13.258Z,2.53
2023-08-30T06:34:41.550Z,2.20
2023-08-30T06:37:11.217Z,1.92
2023-08-30T06:39:39.482Z,1.85
2023-08-30T06:42:08.518Z,1.48
2023-08-30T06:44:36.912Z,1.30
2023-08-30T06:47:05.372Z,1.33
2023-08-30T06:49:33.837Z,1.00
2023-08-30T06:52:04.335Z,1.17
2023-08-30T06:54:36.859Z,1.60
2023-08-30T06:57:07.146Z,1.73
2023-08-30T06:59:35.432Z,1.60
2023-08-30T07:02:03.809Z,1.88
2023-08-30T07:04:32.127Z,2.20
2023-08-30T07:07:00.392Z,1.90
2023-08-30T07:09:30.833Z,1.80
2023-08-30T07:12:00.894Z,1.73
2023-08-30T07:14:29.137Z,1.60
2023-08-30T07:16:57.447Z,1.63
2023-08-30T07:19:25.740Z,1.63
2023-08-30T07:21:53.997Z,1.80
2023-08-30T07:24:23.804Z,1.70
2023-08-30T07:26:52.167Z,1.83
2023-08-30T07:29:21.852Z,2.00
2023-08-30T07:31:52.620Z,1.67
2023-08-30T07:34:20.983Z,1.30
2023-08-30T07:36:49.343Z,1.80
2023-08-30T07:39:17.662Z,1.10
2023-08-30T07:41:45.948Z,1.17
2023-08-30T07:44:14.236Z,0.85
2023-08-30T07:46:43.927Z,0.50
2023-08-30T07:49:12.143Z,0.70
2023-08-30T07:51:40.362Z,0.68
2023-08-30T07:54:08.711Z,0.80
2023-08-30T07:56:37.028Z,0.70
2023-08-30T07:59:05.549Z,0.70
2023-08-30T08:01:33.800Z,0.75
2023-08-30T08:04:07.865Z,0.70
2023-08-30T08:06:37.656Z,0.50
2023-08-30T08:09:07.093Z,0.55
2023-08-30T08:11:35.345Z,0.55
2023-08-30T08:14:04.438Z,0.60
2023-08-30T08:16:33.737Z,0.82
2023-08-30T08:19:03.834Z,0.73
2023-08-30T08:21:32.092Z,0.90
2023-08-30T08:24:00.318Z,1.10
2023-08-30T08:26:28.651Z,1.02
2023-08-30T08:28:57.243Z,1.10
2023-08-30T08:31:25.679Z,0.80
2023-08-30T08:34:09.139Z,0.65
2023-08-30T08:36:39.706Z,0.80
2023-08-30T08:39:08.364Z,0.68
2023-08-30T08:41:42.217Z,0.80
2023-08-30T08:44:10.956Z,0.60
2023-08-30T08:46:40.259Z,0.80
2023-08-30T08:49:11.857Z,0.70
2023-08-30T08:51:42.251Z,0.90
2023-08-30T08:54:11.388Z,1.03
2023-08-30T08:56:40.232Z,0.88
2023-08-30T08:59:09.924Z,0.70
2023-08-30T09:01:41.062Z,0.60
2023-08-30T09:04:11.181Z,0.80
2023-08-30T09:06:42.439Z,0.80
2023-08-30T09:09:11.367Z,0.70
2023-08-30T09:11:50.780Z,0.70
2023-08-30T09:14:20.345Z,0.73
2023-08-30T09:16:57.394Z,0.50
2023-08-30T09:19:25.872Z,0.70
2023-08-30T09:21:56.351Z,0.60
2023-08-30T09:24:24.949Z,0.68
2023-08-30T09:26:54.964Z,0.63
2023-08-30T09:29:24.527Z,0.50
2023-08-30T09:31:54.703Z,0.50
2023-08-30T09:34:25.186Z,0.43
2023-08-30T09:36:56.577Z,0.60
2023-08-30T09:39:25.035Z,0.65
2023-08-30T09:41:53.672Z,0.60
2023-08-30T09:44:23.332Z,0.60
2023-08-30T09:46:53.851Z,0.60
2023-08-30T09:51:53.695Z,0.60
2023-08-30T09:59:48.185Z,0.50
2023-08-30T10:02:18.252Z,0.55
2023-08-30T10:04:47.359Z,0.80
2023-08-30T10:07:17.447Z,0.60
2023-08-30T10:10:07.292Z,0.65
2023-08-30T10:12:37.362Z,0.60
2023-08-30T10:15:07.202Z,0.47
2023-08-30T10:17:36.427Z,0.60
2023-08-30T10:20:08.268Z,0.60
2023-08-30T10:22:39.429Z,0.50
2023-08-30T10:25:12.530Z,0.50
2023-08-30T10:27:43.990Z,0.50
2023-08-30T10:30:13.625Z,0.80
2023-08-30T10:32:42.448Z,0.70
2023-08-30T10:35:14.501Z,0.50
2023-08-30T10:37:43.367Z,0.50
2023-08-30T10:40:13.098Z,0.60
2023-08-30T10:42:42.058Z,0.55
2023-08-30T10:45:14.144Z,0.60
2023-08-30T10:47:43.160Z,0.40
2023-08-30T10:50:13.247Z,0.50
2023-08-30T10:52:41.870Z,0.40
2023-08-30T10:55:13.091Z,0.60
2023-08-30T10:57:45.602Z,0.47
2023-08-30T11:00:22.438Z,0.50
2023-08-30T11:02:52.162Z,0.60
2023-08-30T11:05:23.556Z,0.43
2023-08-30T11:07:52.760Z,0.50
2023-08-30T11:10:23.580Z,0.47
2023-08-30T11:12:52.991Z,0.55
2023-08-30T11:15:22.000Z,0.70
2023-08-30T11:17:50.799Z,0.50
2023-08-30T11:20:21.332Z,0.40
2023-08-30T11:22:50.964Z,0.50
2023-08-30T11:25:19.525Z,0.52
2023-08-30T11:27:49.271Z,0.60
2023-08-30T11:30:17.520Z,0.60
2023-08-30T11:32:46.008Z,0.70
2023-08-30T11:35:14.350Z,0.60
2023-08-30T11:37:43.633Z,0.68
2023-08-30T11:40:14.109Z,0.60
2023-08-30T11:42:43.248Z,0.63
2023-08-30T11:45:13.417Z,0.60
2023-08-30T11:47:42.320Z,0.80
2023-08-30T11:50:13.639Z,0.60
2023-08-30T11:52:42.328Z,0.63
2023-08-30T11:55:11.197Z,1.08
2023-08-30T11:57:39.443Z,0.90
2023-08-30T12:00:14.017Z,0.80
2023-08-30T12:02:42.525Z,0.90
2023-08-30T12:05:13.768Z,0.85
2023-08-30T12:07:42.626Z,1.00
2023-08-30T12:10:12.748Z,0.80
2023-08-30T12:12:46.720Z,0.70
2023-08-30T12:15:17.451Z,0.80
2023-08-30T12:17:45.882Z,0.80
2023-08-30T12:20:18.872Z,0.65
2023-08-30T12:22:47.314Z,0.68
2023-08-30T12:25:19.756Z,0.77
2023-08-30T12:27:48.173Z,0.70
2023-08-30T12:30:18.494Z,0.80
2023-08-30T12:32:47.217Z,0.60
2023-08-30T12:35:15.786Z,0.50
2023-08-30T12:37:44.775Z,0.70
2023-08-30T12:40:13.907Z,0.63
2023-08-30T12:42:42.140Z,0.63
2023-08-30T12:45:11.637Z,0.63
2023-08-30T12:47:41.441Z,0.70
2023-08-30T12:50:10.771Z,0.80
2023-08-30T12:52:39.157Z,0.70
2023-08-30T12:55:07.985Z,0.70
2023-08-30T12:57:36.283Z,0.60
2023-08-30T13:00:05.263Z,0.60
2023-08-30T13:02:33.602Z,0.70
2023-08-30T13:05:03.368Z,0.60
2023-08-30T13:07:32.678Z,0.80
2023-08-30T13:10:02.762Z,0.60
2023-08-30T13:12:31.067Z,0.50
2023-08-30T13:14:59.417Z,0.60
2023-08-30T13:17:27.717Z,0.80
2023-08-30T13:19:56.720Z,0.75
2023-08-30T13:22:27.080Z,0.90
2023-08-30T13:24:55.320Z,0.70
2023-08-30T13:27:23.787Z,0.80
2023-08-30T13:29:52.704Z,0.75
2023-08-30T13:32:21.009Z,0.80
2023-08-30T13:34:49.264Z,0.80
2023-08-30T13:37:17.947Z,0.90
2023-08-30T13:39:48.144Z,0.80
2023-08-30T13:42:16.409Z,0.80
2023-08-30T13:44:45.171Z,0.80
2023-08-30T13:47:13.791Z,0.80
2023-08-30T13:49:42.030Z,0.70
2023-08-30T13:52:10.254Z,0.80
2023-08-30T13:54:38.504Z,0.60
2023-08-30T13:57:08.172Z,0.90
2023-08-30T13:59:37.713Z,0.70
2023-08-30T14:02:06.493Z,0.70
2023-08-30T14:04:37.349Z,0.77
2023-08-30T14:09:33.850Z,0.70
2023-08-30T14:12:02.136Z,0.80
2023-08-30T14:14:32.096Z,0.80
2023-08-30T14:17:00.324Z,1.00
2023-08-30T14:19:28.788Z,0.60
2023-08-30T14:21:59.381Z,0.80
2023-08-30T14:24:27.611Z,0.80
2023-08-30T14:26:55.910Z,0.82
2023-08-30T14:29:24.341Z,0.70
2023-08-30T14:31:54.053Z,0.70
2023-08-30T14:34:22.957Z,1.00
2023-08-30T14:36:51.274Z,1.00
2023-08-30T14:39:19.804Z,0.80
2023-08-30T14:41:48.076Z,1.00
2023-08-30T14:44:16.390Z,0.75
2023-08-30T14:46:44.666Z,0.70
2023-08-30T14:49:14.403Z,0.70
2023-08-30T14:51:42.665Z,0.80
2023-08-30T14:54:10.926Z,0.80
2023-08-30T14:56:39.208Z,1.00
2023-08-30T14:59:07.491Z,0.70
2023-08-30T15:01:36.771Z,0.90
2023-08-30T15:04:05.834Z,0.82
2023-08-30T15:06:35.637Z,1.00
2023-08-30T15:09:04.494Z,0.90
2023-08-30T15:11:32.780Z,0.90
2023-08-30T15:14:01.150Z,0.90
2023-08-30T15:16:29.449Z,1.08
2023-08-30T15:18:57.715Z,0.90
2023-08-30T15:21:26.101Z,0.98
2023-08-30T15:23:55.700Z,0.90
2023-08-30T15:26:24.026Z,0.90
2023-08-30T15:28:52.314Z,1.27
2023-08-30T15:31:20.320Z,1.10
2023-08-30T15:33:48.818Z,1.00
2023-08-30T15:36:17.138Z,1.50
2023-08-30T15:38:46.643Z,0.93
2023-08-30T15:41:16.322Z,1.10
2023-08-30T15:43:44.647Z,0.90
2023-08-30T15:46:14.484Z,1.00
2023-08-30T15:48:44.360Z,0.80
2023-08-30T15:51:23.711Z,0.90
2023-08-30T15:53:53.156Z,1.17
2023-08-30T15:56:23.625Z,0.90
2023-08-30T15:58:52.023Z,0.93
2023-08-30T16:01:21.942Z,0.95
2023-08-30T16:03:50.564Z,0.85
2023-08-30T16:06:18.843Z,0.93
2023-08-30T16:08:47.393Z,0.90
2023-08-30T16:11:15.675Z,0.80
2023-08-30T16:13:45.331Z,1.30
2023-08-30T16:16:13.603Z,1.00
2023-08-30T16:18:41.931Z,1.00
2023-08-30T16:21:10.192Z,1.27
2023-08-30T16:23:39.498Z,1.15
2023-08-30T16:26:07.764Z,1.00
2023-08-30T16:28:37.591Z,0.98
2023-08-30T16:31:09.070Z,0.93
2023-08-30T16:36:05.851Z,1.17
2023-08-30T16:38:34.738Z,1.08
2023-08-30T16:41:05.471Z,1.30
2023-08-30T16:43:33.910Z,1.20
2023-08-30T16:46:03.248Z,1.10
2023-08-30T16:48:33.175Z,1.00
2023-08-30T16:51:01.435Z,1.20
2023-08-30T16:53:29.897Z,1.20
2023-08-30T16:56:01.749Z,1.08
2023-08-30T16:58:29.985Z,1.30
2023-08-30T17:00:58.438Z,1.35
2023-08-30T17:03:26.796Z,1.20
2023-08-30T17:05:57.307Z,1.40
2023-08-30T17:08:25.843Z,1.40
2023-08-30T17:10:54.090Z,1.30
2023-08-30T17:13:22.351Z,1.23
2023-08-30T17:15:50.605Z,1.35
2023-08-30T17:18:18.883Z,1.30
2023-08-30T17:20:47.142Z,1.05
2023-08-30T17:23:16.785Z,1.02
2023-08-30T17:25:45.110Z,1.33
2023-08-30T17:28:13.363Z,1.40
2023-08-30T17:30:41.700Z,1.30
2023-08-30T17:33:10.407Z,1.73
2023-08-30T17:35:39.319Z,1.70
2023-08-30T17:38:08.812Z,2.13
2023-08-30T17:40:38.564Z,2.85
2023-08-30T17:43:08.826Z,3.25
2023-08-30T17:45:37.083Z,2.90
2023-08-30T17:48:05.983Z,1.90
2023-08-30T17:50:34.446Z,1.60
2023-08-30T17:53:03.574Z,1.60
2023-08-30T17:55:31.893Z,1.73
2023-08-30T17:58:01.674Z,1.85
2023-08-30T18:00:29.942Z,1.90
2023-08-30T18:02:58.323Z,1.90
2023-08-30T18:05:26.658Z,1.98
2023-08-30T18:07:57.162Z,1.92
2023-08-30T18:10:26.141Z,1.93
2023-08-30T18:12:54.448Z,1.95
2023-08-30T18:15:24.178Z,1.98
2023-08-30T18:17:53.021Z,2.08
2023-08-30T18:20:21.354Z,1.83
2023-08-30T18:22:49.627Z,2.00
2023-08-30T18:25:18.894Z,1.65
2023-08-30T18:27:47.245Z,2.40
2023-08-30T18:30:15.691Z,1.60
2023-08-30T18:32:46.679Z,1.70
2023-08-30T18:35:15.112Z,1.58
2023-08-30T18:37:44.738Z,1.60
2023-08-30T18:40:13.932Z,1.60
2023-08-30T18:42:42.252Z,2.10
2023-08-30T18:45:11.803Z,1.70
2023-08-30T18:47:40.107Z,1.90
2023-08-30T18:50:13.196Z,1.95
2023-08-30T18:52:41.654Z,1.88
2023-08-30T18:55:11.052Z,1.98
2023-08-30T18:57:39.350Z,1.70
2023-08-30T19:00:11.577Z,1.80
2023-08-30T19:02:40.119Z,1.65
2023-08-30T19:05:10.687Z,1.70
2023-08-30T19:07:38.954Z,1.85
2023-08-30T19:10:09.653Z,1.80
2023-08-30T19:12:37.911Z,1.90
2023-08-30T19:15:09.041Z,1.80
2023-08-30T19:17:37.385Z,2.10
2023-08-30T19:20:06.361Z,2.35
2023-08-30T19:22:36.616Z,1.80
2023-08-30T19:25:05.005Z,2.00
2023-08-30T19:27:33.300Z,1.90
2023-08-30T19:30:01.649Z,1.98
2023-08-30T19:32:29.986Z,2.00
2023-08-30T19:34:58.248Z,2.00
2023-08-30T19:37:28.619Z,1.70
2023-08-30T19:39:58.233Z,2.00
2023-08-30T19:42:26.551Z,1.70
2023-08-30T19:44:58.954Z,1.73
2023-08-30T19:47:28.863Z,1.85
2023-08-30T19:49:57.368Z,2.00
2023-08-30T19:52:26.124Z,1.65
2023-08-30T19:54:55.857Z,1.80
2023-08-30T19:57:25.559Z,1.70
2023-08-30T19:59:55.038Z,1.50
2023-08-30T20:02:23.746Z,1.70
2023-08-30T20:04:53.165Z,1.50
2023-08-30T20:07:21.533Z,1.60
2023-08-30T20:09:49.928Z,1.88
2023-08-30T20:12:18.228Z,1.58
2023-08-30T20:14:47.936Z,1.80
2023-08-30T20:17:16.212Z,1.80
2023-08-30T20:19:44.483Z,1.88
2023-08-30T20:22:12.895Z,1.60
2023-08-30T20:24:41.106Z,1.70
2023-08-30T20:27:09.325Z,1.95
2023-08-30T20:29:37.571Z,1.65
2023-08-30T20:32:07.856Z,1.70
2023-08-30T20:34:36.108Z,1.40
2023-08-30T20:37:04.428Z,1.90
2023-08-30T20:39:32.709Z,1.85
2023-08-30T20:42:03.199Z,1.90
2023-08-30T20:44:32.964Z,1.70
2023-08-30T20:47:01.235Z,1.80
2023-08-30T20:49:30.842Z,1.80
2023-08-30T20:51:59.104Z,2.00
2023-08-30T20:54:27.375Z,1.70
2023-08-30T20:56:55.750Z,1.70
2023-08-30T20:59:24.065Z,1.70
2023-08-30T21:01:52.334Z,1.60
2023-08-30T21:04:20.664Z,1.67
2023-08-30T21:06:50.258Z,1.63
2023-08-30T21:09:18.525Z,1.90
2023-08-30T21:11:46.959Z,1.70
2023-08-30T21:14:15.948Z,1.63
2023-08-30T21:16:44.219Z,1.65
2023-08-30T21:19:12.459Z,1.70
2023-08-30T21:21:40.894Z,1.75
2023-08-30T21:24:12.478Z,1.77
2023-08-30T21:26:40.743Z,2.03
2023-08-30T21:29:09.340Z,1.40
2023-08-30T21:31:37.585Z,1.63
2023-08-30T21:34:06.091Z,1.77
2023-08-30T21:36:34.328Z,1.50
2023-08-30T21:39:02.845Z,1.90
2023-08-30T21:41:32.452Z,1.80
2023-08-30T21:44:00.880Z,1.48
2023-08-30T21:46:29.901Z,1.60
2023-08-30T21:48:58.186Z,1.65
2023-08-30T21:51:28.782Z,1.77
2023-08-30T21:53:57.100Z,1.60
2023-08-30T21:56:25.333Z,1.52
2023-08-30T21:58:55.116Z,1.50
2023-08-30T22:01:23.374Z,1.70
2023-08-30T22:03:53.162Z,1.80
2023-08-30T22:06:21.637Z,1.50
2023-08-30T22:08:50.822Z,1.60
2023-08-30T22:11:20.335Z,1.77
2023-08-30T22:13:48.594Z,1.50
2023-08-30T22:16:18.292Z,1.63
2023-08-30T22:18:48.272Z,1.50
2023-08-30T22:21:17.479Z,1.60
2023-08-30T22:23:45.755Z,1.70
2023-08-30T22:26:13.980Z,1.70
2023-08-30T22:28:42.194Z,1.77
2023-08-30T22:31:10.505Z,1.60
2023-08-30T22:33:40.141Z,1.52
2023-08-30T22:36:09.113Z,1.90
2023-08-30T22:38:37.431Z,1.55
2023-08-30T22:41:05.695Z,1.50
2023-08-30T22:43:33.945Z,1.60
2023-08-30T22:46:03.000Z,1.83
2023-08-30T22:48:31.519Z,1.50
2023-08-30T22:51:05.581Z,1.40
2023-08-30T22:53:34.333Z,1.52
2023-08-30T22:56:03.698Z,1.50
2023-08-30T22:58:32.017Z,1.65
2023-08-30T23:01:03.067Z,1.50
2023-08-30T23:03:31.712Z,1.80
2023-08-30T23:06:00.212Z,1.60
2023-08-30T23:08:30.021Z,1.58
2023-08-30T23:10:58.501Z,1.38
2023-08-30T23:13:26.853Z,1.35
2023-08-30T23:15:55.088Z,1.60
2023-08-30T23:18:23.427Z,1.38
2023-08-30T23:20:51.963Z,1.92
2023-08-30T23:23:21.712Z,1.55
2023-08-30T23:25:51.328Z,1.60
2023-08-30T23:28:19.618Z,1.48
2023-08-30T23:30:48.804Z,1.50
2023-08-30T23:33:17.029Z,1.75
2023-08-30T23:35:45.251Z,1.58
2023-08-30T23:38:13.494Z,1.80
2023-08-30T23:40:41.860Z,1.42
2023-08-30T23:43:12.085Z,1.50
2023-08-30T23:45:40.485Z,1.40
2023-08-30T23:48:08.982Z,1.35
2023-08-30T23:50:37.707Z,1.50
2023-08-30T23:53:07.492Z,1.20
2023-08-30T23:55:35.761Z,1.60
2023-08-30T23:58:05.012Z,1.77
